createdAt,value
2023-01-29T04:12:01.164Z,-0.80
2023-01-29T04:14:33.628Z,-0.80
2023-01-29T04:17:10.580Z,-0.90
2023-01-29T04:19:48.211Z,-0.70
2023-01-29T04:22:21.725Z,-0.80
2023-01-29T04:24:53.158Z,-0.80
2023-01-29T04:27:32.693Z,-0.80
2023-01-29T04:30:30.156Z,-0.90
2023-01-29T04:33:12.415Z,-0.90
2023-01-29T04:36:02.140Z,-0.90
2023-01-29T04:38:41.740Z,-0.90
2023-01-29T04:41:17.927Z,-0.80
2023-01-29T04:43:57.138Z,-0.90
2023-01-29T04:46:31.658Z,-0.70
2023-01-29T04:49:12.140Z,-0.80
2023-01-29T04:51:49.677Z,-0.70
2023-01-29T04:54:25.191Z,-0.80
2023-01-29T04:56:58.312Z,-0.80
2023-01-29T04:59:35.154Z,-0.80
2023-01-29T05:02:10.835Z,-0.70
2023-01-29T05:04:40.976Z,-0.70
2023-01-29T05:07:13.741Z,-0.80
2023-01-29T05:09:45.177Z,-0.80
2023-01-29T05:12:18.961Z,-0.80
2023-01-29T05:14:50.525Z,-0.80
2023-01-29T05:17:21.534Z,-0.70
2023-01-29T05:19:50.697Z,-0.80
2023-01-29T05:22:22.890Z,-0.80
2023-01-29T05:24:51.521Z,-0.70
2023-01-29T05:27:45.303Z,-0.70
2023-01-29T05:30:15.578Z,-0.60
2023-01-29T05:32:43.947Z,-0.70
2023-01-29T05:35:12.152Z,-0.70
2023-01-29T05:37:40.368Z,-0.80
2023-01-29T05:40:10.254Z,-0.80
2023-01-29T05:42:38.507Z,-0.80
2023-01-29T05:45:07.929Z,-0.80
2023-01-29T05:47:38.045Z,-0.80
2023-01-29T05:50:07.280Z,-0.70
2023-01-29T05:52:35.539Z,-0.70
2023-01-29T05:55:03.769Z,-0.70
2023-01-29T05:57:31.984Z,-0.70
2023-01-29T06:00:00.223Z,-0.70
2023-01-29T06:02:30.999Z,-0.70
2023-01-29T06:05:00.671Z,-0.70
2023-01-29T06:07:29.199Z,-0.60
2023-01-29T06:09:57.536Z,-0.60
2023-01-29T06:12:26.138Z,-0.70
2023-01-29T06:14:54.698Z,-0.60
2023-01-29T06:17:23.172Z,-0.50
2023-01-29T06:19:51.595Z,-0.70
2023-01-29T06:22:21.513Z,-0.60
2023-01-29T06:24:49.913Z,-0.60
2023-01-29T06:27:18.286Z,-0.60
2023-01-29T06:29:47.935Z,-0.60
2023-01-29T06:32:16.309Z,-0.50
2023-01-29T06:34:44.728Z,-0.60
2023-01-29T06:37:15.003Z,-0.50
2023-01-29T06:39:44.808Z,-0.50
2023-01-29T06:42:13.466Z,-0.60
2023-01-29T06:44:41.902Z,-0.40
2023-01-29T06:47:10.345Z,-0.50
2023-01-29T06:49:38.704Z,-0.50
2023-01-29T06:52:07.109Z,-0.50
2023-01-29T06:54:35.520Z,-0.50
2023-01-29T06:57:05.312Z,-0.60
2023-01-29T06:59:33.586Z,-0.50
2023-01-29T07:02:01.890Z,-0.50
2023-01-29T07:04:31.502Z,-0.50
2023-01-29T07:07:00.913Z,-0.50
2023-01-29T07:09:29.180Z,-0.40
2023-01-29T07:11:57.382Z,-0.40
2023-01-29T07:14:26.950Z,-0.40
2023-01-29T07:16:55.232Z,-0.40
2023-01-29T07:19:24.027Z,-0.40
2023-01-29T07:21:52.243Z,-0.40
2023-01-29T07:24:20.783Z,-0.40
2023-01-29T07:26:49.029Z,-0.40
2023-01-29T07:29:17.203Z,-0.40
2023-01-29T07:31:46.895Z,-0.40
2023-01-29T07:34:15.165Z,-0.30
2023-01-29T07:36:43.389Z,-0.20
2023-01-29T07:39:11.588Z,-0.30
2023-01-29T07:41:39.815Z,-0.30
2023-01-29T07:44:17.136Z,-0.30
2023-01-29T07:46:46.699Z,-0.20
2023-01-29T07:49:15.045Z,-0.20
2023-01-29T07:51:43.272Z,0.00
2023-01-29T07:54:11.504Z,0.00
2023-01-29T07:56:39.706Z,-0.10
2023-01-29T07:59:07.909Z,-0.10
2023-01-29T08:01:36.265Z,-0.10
2023-01-29T08:04:06.088Z,0.00
2023-01-29T08:06:34.335Z,-0.10
2023-01-29T08:09:02.574Z,-0.10
2023-01-29T08:11:30.804Z,-0.10
2023-01-29T08:13:59.026Z,-0.10
2023-01-29T08:16:27.335Z,-0.10
2023-01-29T08:18:55.595Z,0.00
2023-01-29T08:21:25.193Z,-0.10
2023-01-29T08:23:53.512Z,0.00
2023-01-29T08:26:22.098Z,0.00
2023-01-29T08:28:50.359Z,0.10
2023-01-29T08:31:20.627Z,0.10
2023-01-29T08:33:49.200Z,0.20
2023-01-29T08:36:17.523Z,0.20
2023-01-29T08:38:47.167Z,0.20
2023-01-29T08:41:15.384Z,0.20
2023-01-29T08:43:43.620Z,0.20
2023-01-29T08:46:11.919Z,0.20
2023-01-29T08:48:40.161Z,0.10
2023-01-29T08:51:08.640Z,0.20
2023-01-29T08:53:37.086Z,0.20
2023-01-29T08:56:07.276Z,0.20
2023-01-29T08:58:35.544Z,0.20
2023-01-29T09:01:07.977Z,0.20
2023-01-29T09:03:41.014Z,0.20
2023-01-29T09:06:10.818Z,0.20
2023-01-29T09:08:39.628Z,0.20
2023-01-29T09:11:09.888Z,0.30
2023-01-29T09:13:38.611Z,0.40
2023-01-29T09:16:07.522Z,0.40
2023-01-29T09:18:35.832Z,0.40
2023-01-29T09:21:04.207Z,0.30
2023-01-29T09:23:33.147Z,0.40
2023-01-29T09:26:01.858Z,0.40
2023-01-29T09:28:31.516Z,0.40
2023-01-29T09:31:02.378Z,0.40
2023-01-29T09:33:31.054Z,0.50
2023-01-29T09:35:59.432Z,0.50
2023-01-29T09:38:27.915Z,0.50
2023-01-29T09:41:05.411Z,0.40
2023-01-29T09:43:44.176Z,0.30
2023-01-29T09:46:20.995Z,0.30
2023-01-29T09:48:54.398Z,0.30
2023-01-29T09:51:29.383Z,0.40
2023-01-29T09:54:07.853Z,0.30
2023-01-29T09:56:36.768Z,0.40
2023-01-29T09:59:06.491Z,0.40
2023-01-29T10:01:40.661Z,0.50
2023-01-29T10:04:27.970Z,0.50
2023-01-29T10:07:11.674Z,0.60
2023-01-29T10:10:08.527Z,0.50
2023-01-29T10:12:53.840Z,0.60
2023-01-29T10:15:40.809Z,0.60
2023-01-29T10:18:39.137Z,0.50
2023-01-29T10:21:24.377Z,0.50
2023-01-29T10:23:55.477Z,0.40
2023-01-29T10:26:27.603Z,0.40
2023-01-29T10:28:58.060Z,0.40
2023-01-29T10:31:34.382Z,0.30
2023-01-29T10:34:07.567Z,0.40
2023-01-29T10:36:39.799Z,0.50
2023-01-29T10:39:16.697Z,0.40
2023-01-29T10:41:57.201Z,0.50
2023-01-29T10:44:37.008Z,0.50
2023-01-29T10:47:30.583Z,0.60
2023-01-29T10:50:16.600Z,0.60
2023-01-29T10:53:02.978Z,0.60
2023-01-29T10:55:44.493Z,0.40
2023-01-29T10:58:23.901Z,0.50
2023-01-29T11:00:53.505Z,0.50
2023-01-29T11:03:28.662Z,0.40
2023-01-29T11:06:05.333Z,0.50
2023-01-29T11:08:38.543Z,0.40
2023-01-29T11:11:10.534Z,0.40
2023-01-29T11:13:44.656Z,0.40
2023-01-29T11:16:13.574Z,0.30
2023-01-29T11:18:57.757Z,0.40
2023-01-29T11:21:27.499Z,0.40
2023-01-29T11:24:12.833Z,0.40
2023-01-29T11:26:43.427Z,0.40
2023-01-29T11:29:38.387Z,0.40
2023-01-29T11:32:09.274Z,0.40
2023-01-29T11:34:59.876Z,0.40
2023-01-29T11:37:35.271Z,0.50
2023-01-29T11:40:29.507Z,0.50
2023-01-29T11:43:11.038Z,0.60
2023-01-29T11:45:40.977Z,0.60
2023-01-29T11:48:16.942Z,0.60
2023-01-29T11:51:00.832Z,0.60
2023-01-29T11:53:48.653Z,0.60
2023-01-29T11:56:23.593Z,0.50
2023-01-29T11:58:53.814Z,0.50
2023-01-29T12:01:33.001Z,0.50
2023-01-29T12:04:02.607Z,0.50
2023-01-29T12:06:36.920Z,0.50
2023-01-29T12:09:11.581Z,0.50
2023-01-29T12:11:41.247Z,0.50
2023-01-29T12:14:28.230Z,0.50
2023-01-29T12:17:00.795Z,0.50
2023-01-29T12:19:35.802Z,0.40
2023-01-29T12:22:11.887Z,0.40
2023-01-29T12:24:46.120Z,0.30
2023-01-29T12:27:22.403Z,0.40
2023-01-29T12:29:57.886Z,0.30
2023-01-29T12:32:35.861Z,0.40
2023-01-29T12:35:13.096Z,0.50
2023-01-29T12:37:50.796Z,0.40
2023-01-29T12:40:20.756Z,0.50
2023-01-29T12:42:51.843Z,0.40
2023-01-29T12:45:23.095Z,0.50
2023-01-29T12:47:55.292Z,0.30
2023-01-29T12:50:30.767Z,0.30
2023-01-29T12:53:03.887Z,0.30
2023-01-29T12:55:38.199Z,0.40
2023-01-29T12:58:18.931Z,0.40
2023-01-29T13:00:58.507Z,0.40
2023-01-29T13:03:34.417Z,0.40
2023-01-29T13:06:08.619Z,0.40
2023-01-29T13:08:42.633Z,0.40
2023-01-29T13:11:25.179Z,0.30
2023-01-29T13:14:12.131Z,0.30
2023-01-29T13:16:47.007Z,0.40
2023-01-29T13:19:24.197Z,0.30
2023-01-29T13:21:54.950Z,0.40
2023-01-29T13:24:27.202Z,0.40
2023-01-29T13:26:57.912Z,0.30
2023-01-29T13:29:29.163Z,0.40
2023-01-29T13:31:59.092Z,0.30
2023-01-29T13:34:31.811Z,0.30
2023-01-29T13:37:03.882Z,0.20
2023-01-29T13:39:44.533Z,0.30
2023-01-29T13:42:19.203Z,0.30
2023-01-29T13:44:50.779Z,0.20
2023-01-29T13:47:25.966Z,0.20
2023-01-29T13:50:01.495Z,0.40
2023-01-29T13:52:39.991Z,0.20
2023-01-29T13:55:26.271Z,0.20
2023-01-29T13:57:56.337Z,0.20
2023-01-29T14:00:59.306Z,0.20
2023-01-29T14:04:04.814Z,0.20
2023-01-29T14:06:51.526Z,0.10
2023-01-29T14:09:55.952Z,0.20
2023-01-29T14:12:38.950Z,0.20
2023-01-29T14:15:22.124Z,0.20
2023-01-29T14:18:16.698Z,0.10
2023-01-29T14:21:00.817Z,0.30
2023-01-29T14:23:40.450Z,0.10
2023-01-29T14:26:23.752Z,0.10
2023-01-29T14:29:03.903Z,0.10
2023-01-29T14:31:38.778Z,0.10
2023-01-29T14:34:15.000Z,0.10
2023-01-29T14:36:45.724Z,0.10
2023-01-29T14:39:29.322Z,0.10
2023-01-29T14:41:58.329Z,0.10
2023-01-29T14:45:04.177Z,0.00
2023-01-29T14:48:00.868Z,0.10
2023-01-29T14:50:59.414Z,0.00
2023-01-29T14:53:47.368Z,0.00
2023-01-29T14:56:18.603Z,0.00
2023-01-29T14:58:50.180Z,0.00
2023-01-29T15:01:26.467Z,0.00
2023-01-29T15:04:03.952Z,0.00
2023-01-29T15:06:44.859Z,0.00
2023-01-29T15:09:18.912Z,0.00
2023-01-29T15:11:56.588Z,0.00
2023-01-29T15:14:32.769Z,0.00
2023-01-29T15:17:08.850Z,0.00
2023-01-29T15:19:44.864Z,0.00
2023-01-29T15:22:14.723Z,0.10
2023-01-29T15:24:44.867Z,0.00
2023-01-29T15:27:17.262Z,0.00
2023-01-29T15:29:50.985Z,0.10
2023-01-29T15:32:30.815Z,0.00
2023-01-29T15:35:02.120Z,0.10
2023-01-29T15:37:33.163Z,0.20
2023-01-29T15:40:03.357Z,0.00
2023-01-29T15:42:46.788Z,0.10
2023-01-29T15:45:31.221Z,0.00
2023-01-29T15:48:05.044Z,0.10
2023-01-29T15:50:40.564Z,0.10
2023-01-29T15:53:14.937Z,0.10
2023-01-29T15:55:43.816Z,0.10
2023-01-29T15:58:17.309Z,0.10
2023-01-29T16:00:51.243Z,0.10
2023-01-29T16:03:23.255Z,0.10
2023-01-29T16:05:53.723Z,0.20
2023-01-29T16:08:22.996Z,0.10
2023-01-29T16:10:54.936Z,0.10
2023-01-29T16:13:25.914Z,0.10
2023-01-29T16:15:59.520Z,0.10
2023-01-29T16:18:33.952Z,0.10
2023-01-29T16:21:08.870Z,0.20
2023-01-29T16:23:42.316Z,0.20
2023-01-29T16:26:16.933Z,0.10
2023-01-29T16:28:46.423Z,0.10
2023-01-29T16:31:21.717Z,0.10
2023-01-29T16:33:50.144Z,0.10
2023-01-29T16:36:21.980Z,0.10
2023-01-29T16:38:54.233Z,0.20
2023-01-29T16:41:32.165Z,0.20
2023-01-29T16:44:02.206Z,0.20
2023-01-29T16:46:35.868Z,0.10
2023-01-29T16:49:26.137Z,0.20
2023-01-29T16:51:57.007Z,0.20
2023-01-29T16:54:26.751Z,0.10
2023-01-29T16:56:59.884Z,0.20
2023-01-29T16:59:34.514Z,0.20
2023-01-29T17:02:03.405Z,0.20
2023-01-29T17:04:31.795Z,0.20
2023-01-29T17:07:03.106Z,0.20
2023-01-29T17:09:35.712Z,0.10
2023-01-29T17:12:06.913Z,0.20
2023-01-29T17:14:38.747Z,0.10
2023-01-29T17:17:15.461Z,0.10
2023-01-29T17:19:43.898Z,0.10
2023-01-29T17:22:18.920Z,0.20
2023-01-29T17:24:51.457Z,0.20
2023-01-29T17:27:22.388Z,0.10
2023-01-29T17:29:52.666Z,0.10
2023-01-29T17:32:44.080Z,0.10
2023-01-29T17:35:14.311Z,0.10
2023-01-29T17:37:44.491Z,0.10
2023-01-29T17:40:21.573Z,0.10
2023-01-29T17:42:49.878Z,0.10
2023-01-29T17:45:18.539Z,0.20
2023-01-29T17:47:47.027Z,0.10
2023-01-29T17:50:22.444Z,0.10
2023-01-29T17:52:53.294Z,0.10
2023-01-29T17:55:21.902Z,0.10
2023-01-29T17:57:50.240Z,0.10
2023-01-29T18:00:21.662Z,0.10
2023-01-29T18:02:50.099Z,0.10
2023-01-29T18:05:19.649Z,0.10
2023-01-29T18:07:51.714Z,0.10
2023-01-29T18:10:23.066Z,0.10
2023-01-29T18:12:51.396Z,0.10
2023-01-29T18:15:19.974Z,0.20
2023-01-29T18:17:49.063Z,0.20
2023-01-29T18:20:23.688Z,0.20
2023-01-29T18:22:52.085Z,0.20
2023-01-29T18:25:24.092Z,0.20
2023-01-29T18:27:53.122Z,0.20
2023-01-29T18:30:21.424Z,0.30
2023-01-29T18:32:50.357Z,0.20
2023-01-29T18:35:19.001Z,0.20
2023-01-29T18:37:47.731Z,0.20
2023-01-29T18:40:17.422Z,0.10
2023-01-29T18:42:47.674Z,0.20
2023-01-29T18:45:16.848Z,0.20
2023-01-29T18:47:46.143Z,0.20
2023-01-29T18:50:14.519Z,0.20
2023-01-29T18:52:44.286Z,0.30
2023-01-29T18:55:12.636Z,0.20
2023-01-29T18:58:26.740Z,0.20
2023-01-29T19:00:30.571Z,0.20
2023-01-29T19:02:58.857Z,0.20
2023-01-29T19:05:27.211Z,0.20
2023-01-29T19:07:55.517Z,0.20
2023-01-29T19:10:23.776Z,0.20
2023-01-29T19:12:52.074Z,0.20
2023-01-29T19:15:22.075Z,0.40
2023-01-29T19:17:51.965Z,0.20
2023-01-29T19:20:20.472Z,0.30
2023-01-29T19:22:48.703Z,0.30
2023-01-29T19:25:17.698Z,0.30
2023-01-29T19:27:46.576Z,0.30
2023-01-29T19:30:15.225Z,0.30
2023-01-29T19:32:43.565Z,0.30
2023-01-29T19:35:13.168Z,0.30
2023-01-29T19:37:41.471Z,0.30
2023-01-29T19:40:11.109Z,0.30
2023-01-29T19:42:39.869Z,0.30
2023-01-29T19:45:09.972Z,0.30
2023-01-29T19:47:40.015Z,0.30
2023-01-29T19:50:09.453Z,0.40
2023-01-29T19:52:50.817Z,0.30
2023-01-29T19:55:20.945Z,0.30
2023-01-29T19:57:49.584Z,0.30
2023-01-29T20:00:19.676Z,0.30
2023-01-29T20:02:48.309Z,0.40
2023-01-29T20:05:18.548Z,0.40
2023-01-29T20:07:49.877Z,0.40
2023-01-29T20:10:18.793Z,0.50
2023-01-29T20:12:47.690Z,0.40
2023-01-29T20:15:16.616Z,0.40
2023-01-29T20:17:45.779Z,0.40
2023-01-29T20:20:15.051Z,0.30
2023-01-29T20:22:43.460Z,0.40
2023-01-29T20:25:14.308Z,0.30
2023-01-29T20:27:42.770Z,0.40
2023-01-29T20:30:12.353Z,0.50
2023-01-29T20:32:40.668Z,0.40
2023-01-29T20:35:10.282Z,0.50
2023-01-29T20:37:38.598Z,0.40
2023-01-29T20:40:07.789Z,0.40
2023-01-29T20:42:37.408Z,0.40
2023-01-29T20:45:06.637Z,0.40
2023-01-29T20:47:35.292Z,0.40
2023-01-29T20:50:08.620Z,0.40
2023-01-29T20:52:37.806Z,0.40
2023-01-29T20:55:08.552Z,0.40
2023-01-29T20:57:39.115Z,0.40
2023-01-29T21:00:09.062Z,0.50
2023-01-29T21:02:37.371Z,0.40
2023-01-29T21:05:06.791Z,0.40
2023-01-29T21:07:36.205Z,0.50
2023-01-29T21:10:04.807Z,0.50
2023-01-29T21:12:33.176Z,0.50
2023-01-29T21:15:03.192Z,0.60
2023-01-29T21:17:31.643Z,0.50
2023-01-29T21:20:01.323Z,0.50
2023-01-29T21:22:29.830Z,0.50
2023-01-29T21:24:58.235Z,0.50
2023-01-29T21:27:26.795Z,0.60
2023-01-29T21:29:55.049Z,0.50
2023-01-29T21:32:24.715Z,0.60
2023-01-29T21:34:52.927Z,0.50
2023-01-29T21:37:21.156Z,0.60
2023-01-29T21:39:49.453Z,0.60
2023-01-29T21:42:34.925Z,0.60
2023-01-29T21:45:03.166Z,0.60
2023-01-29T21:47:32.922Z,0.50
2023-01-29T21:50:01.185Z,0.50
2023-01-29T21:52:29.423Z,0.60
2023-01-29T21:54:57.641Z,0.60
2023-01-29T21:57:26.720Z,0.60
2023-01-29T21:59:54.979Z,0.60
2023-01-29T22:02:26.296Z,0.60
2023-01-29T22:05:08.809Z,0.60
2023-01-29T22:07:45.662Z,0.70
2023-01-29T22:10:14.386Z,0.60
2023-01-29T22:12:43.182Z,0.60
2023-01-29T22:15:12.866Z,0.60
2023-01-29T22:17:41.695Z,0.60
2023-01-29T22:20:14.826Z,0.60
2023-01-29T22:22:43.350Z,0.60
2023-01-29T22:25:11.998Z,0.60
2023-01-29T22:27:40.270Z,0.60
2023-01-29T22:30:10.149Z,0.60
2023-01-29T22:32:38.429Z,0.60
2023-01-29T22:35:07.811Z,0.60
2023-01-29T22:37:37.604Z,0.60
2023-01-29T22:40:06.889Z,0.60
2023-01-29T22:42:35.115Z,0.60
2023-01-29T22:45:03.345Z,0.70
2023-01-29T22:47:33.585Z,0.70
2023-01-29T22:50:01.874Z,0.70
2023-01-29T22:52:38.650Z,0.70
2023-01-29T22:55:11.239Z,0.70
2023-01-29T22:57:40.467Z,0.70
2023-01-29T23:00:12.705Z,0.80
2023-01-29T23:02:40.934Z,0.70
2023-01-29T23:05:09.742Z,0.70
